sensor_id;sensor_type;location;lat;lon;timestamp;P1;durP1;ratioP1;P2;durP2;ratioP2
65879;SDS011;52661;51.364;6.054;2023-02-23T00:01:10;44.05;;;17.58;;
65879;SDS011;52661;51.364;6.054;2023-02-23T00:03:39;45.83;;;18.83;;
65879;SDS011;52661;51.364;6.054;2023-02-23T00:06:05;45.00;;;17.25;;
65879;SDS011;52661;51.364;6.054;2023-02-23T00:08:32;42.97;;;18.48;;
65879;SDS011;52661;51.364;6.054;2023-02-23T00:11:00;49.35;;;18.83;;
65879;SDS011;52661;51.364;6.054;2023-02-23T00:13:25;48.92;;;18.35;;
65879;SDS011;52661;51.364;6.054;2023-02-23T00:15:51;41.80;;;18.10;;
65879;SDS011;52661;51.364;6.054;2023-02-23T00:18:16;46.63;;;19.80;;
65879;SDS011;52661;51.364;6.054;2023-02-23T00:20:41;44.07;;;16.63;;
65879;SDS011;52661;51.364;6.054;2023-02-23T00:23:11;43.25;;;17.98;;
65879;SDS011;52661;51.364;6.054;2023-02-23T00:25:37;44.22;;;17.02;;
65879;SDS011;52661;51.364;6.054;2023-02-23T00:28:03;43.75;;;18.27;;
65879;SDS011;52661;51.364;6.054;2023-02-23T00:30:31;42.92;;;18.08;;
65879;SDS011;52661;51.364;6.054;2023-02-23T00:32:56;45.85;;;18.08;;
65879;SDS011;52661;51.364;6.054;2023-02-23T00:35:21;41.80;;;17.75;;
65879;SDS011;52661;51.364;6.054;2023-02-23T00:37:49;41.80;;;18.92;;
65879;SDS011;52661;51.364;6.054;2023-02-23T00:40:15;47.33;;;17.25;;
65879;SDS011;52661;51.364;6.054;2023-02-23T00:42:45;42.88;;;19.10;;
65879;SDS011;52661;51.364;6.054;2023-02-23T00:45:12;43.47;;;17.73;;
65879;SDS011;52661;51.364;6.054;2023-02-23T00:47:39;43.33;;;17.80;;
65879;SDS011;52661;51.364;6.054;2023-02-23T00:50:09;46.72;;;17.80;;
65879;SDS011;52661;51.364;6.054;2023-02-23T00:52:37;44.28;;;18.13;;
65879;SDS011;52661;51.364;6.054;2023-02-23T00:55:05;43.05;;;17.95;;
65879;SDS011;52661;51.364;6.054;2023-02-23T00:57:34;43.50;;;16.48;;
65879;SDS011;52661;51.364;6.054;2023-02-23T01:00:00;39.50;;;17.15;;
65879;SDS011;52661;51.364;6.054;2023-02-23T01:02:27;43.47;;;17.92;;
65879;SDS011;52661;51.364;6.054;2023-02-23T01:04:55;47.40;;;17.58;;
65879;SDS011;52661;51.364;6.054;2023-02-23T01:07:21;44.03;;;17.15;;
65879;SDS011;52661;51.364;6.054;2023-02-23T01:09:49;40.45;;;17.30;;
65879;SDS011;52661;51.364;6.054;2023-02-23T01:12:15;44.45;;;19.55;;
65879;SDS011;52661;51.364;6.054;2023-02-23T01:14:40;46.78;;;18.20;;
65879;SDS011;52661;51.364;6.054;2023-02-23T01:17:06;44.55;;;18.27;;
65879;SDS011;52661;51.364;6.054;2023-02-23T01:19:31;42.17;;;17.57;;
65879;SDS011;52661;51.364;6.054;2023-02-23T01:21:58;42.40;;;17.50;;
65879;SDS011;52661;51.364;6.054;2023-02-23T01:24:23;40.72;;;17.65;;
65879;SDS011;52661;51.364;6.054;2023-02-23T01:26:48;43.58;;;17.92;;
65879;SDS011;52661;51.364;6.054;2023-02-23T01:29:15;42.90;;;17.40;;
65879;SDS011;52661;51.364;6.054;2023-02-23T01:31:43;44.83;;;17.08;;
65879;SDS011;52661;51.364;6.054;2023-02-23T01:34:11;43.45;;;17.63;;
65879;SDS011;52661;51.364;6.054;2023-02-23T01:36:38;49.22;;;19.50;;
65879;SDS011;52661;51.364;6.054;2023-02-23T01:39:06;47.53;;;19.50;;
65879;SDS011;52661;51.364;6.054;2023-02-23T01:41:34;48.83;;;19.40;;
65879;SDS011;52661;51.364;6.054;2023-02-23T01:44:02;48.78;;;18.13;;
65879;SDS011;52661;51.364;6.054;2023-02-23T01:46:31;40.22;;;18.40;;
65879;SDS011;52661;51.364;6.054;2023-02-23T01:48:58;46.67;;;18.33;;
65879;SDS011;52661;51.364;6.054;2023-02-23T01:51:25;45.38;;;19.10;;
65879;SDS011;52661;51.364;6.054;2023-02-23T01:54:06;44.47;;;18.23;;
65879;SDS011;52661;51.364;6.054;2023-02-23T01:56:40;45.55;;;18.77;;
65879;SDS011;52661;51.364;6.054;2023-02-23T01:59:07;47.53;;;19.23;;
65879;SDS011;52661;51.364;6.054;2023-02-23T02:01:36;45.50;;;18.80;;
65879;SDS011;52661;51.364;6.054;2023-02-23T02:04:06;42.55;;;17.13;;
65879;SDS011;52661;51.364;6.054;2023-02-23T02:06:33;47.72;;;19.23;;
65879;SDS011;52661;51.364;6.054;2023-02-23T02:09:02;47.15;;;18.40;;
65879;SDS011;52661;51.364;6.054;2023-02-23T02:11:34;45.17;;;19.00;;
65879;SDS011;52661;51.364;6.054;2023-02-23T02:16:46;46.22;;;18.27;;
65879;SDS011;52661;51.364;6.054;2023-02-23T02:22:18;42.70;;;17.52;;
65879;SDS011;52661;51.364;6.054;2023-02-23T02:25:17;42.28;;;16.98;;
65879;SDS011;52661;51.364;6.054;2023-02-23T02:27:55;40.63;;;17.23;;
65879;SDS011;52661;51.364;6.054;2023-02-23T02:33:38;47.08;;;18.67;;
65879;SDS011;52661;51.364;6.054;2023-02-23T02:47:06;48.55;;;18.20;;
65879;SDS011;52661;51.364;6.054;2023-02-23T02:49:50;44.70;;;16.92;;
65879;SDS011;52661;51.364;6.054;2023-02-23T02:52:24;44.25;;;16.63;;
65879;SDS011;52661;51.364;6.054;2023-02-23T02:55:12;47.50;;;18.42;;
65879;SDS011;52661;51.364;6.054;2023-02-23T02:57:41;44.60;;;17.83;;
65879;SDS011;52661;51.364;6.054;2023-02-23T03:00:13;45.80;;;18.13;;
65879;SDS011;52661;51.364;6.054;2023-02-23T03:03:01;41.83;;;17.20;;
65879;SDS011;52661;51.364;6.054;2023-02-23T03:05:47;45.58;;;18.17;;
65879;SDS011;52661;51.364;6.054;2023-02-23T03:08:36;44.53;;;18.02;;
65879;SDS011;52661;51.364;6.054;2023-02-23T03:11:29;47.08;;;18.23;;
65879;SDS011;52661;51.364;6.054;2023-02-23T03:14:22;46.30;;;18.58;;
65879;SDS011;52661;51.364;6.054;2023-02-23T03:26:11;46.58;;;17.05;;
65879;SDS011;52661;51.364;6.054;2023-02-23T03:29:19;48.33;;;18.90;;
65879;SDS011;52661;51.364;6.054;2023-02-23T03:32:18;43.78;;;17.85;;
65879;SDS011;52661;51.364;6.054;2023-02-23T03:40:53;41.97;;;16.88;;
65879;SDS011;52661;51.364;6.054;2023-02-23T03:43:40;44.72;;;18.50;;
65879;SDS011;52661;51.364;6.054;2023-02-23T03:46:29;44.80;;;18.17;;
65879;SDS011;52661;51.364;6.054;2023-02-23T03:49:14;44.63;;;19.70;;
65879;SDS011;52661;51.364;6.054;2023-02-23T03:52:06;47.05;;;17.42;;
65879;SDS011;52661;51.364;6.054;2023-02-23T03:54:58;46.40;;;17.92;;
65879;SDS011;52661;51.364;6.054;2023-02-23T03:57:44;45.47;;;18.33;;
65879;SDS011;52661;51.364;6.054;2023-02-23T04:00:33;42.33;;;18.00;;
65879;SDS011;52661;51.364;6.054;2023-02-23T04:03:24;41.90;;;17.63;;
65879;SDS011;52661;51.364;6.054;2023-02-23T04:06:10;57.95;;;19.58;;
65879;SDS011;52661;51.364;6.054;2023-02-23T04:08:58;42.35;;;17.70;;
65879;SDS011;52661;51.364;6.054;2023-02-23T04:11:46;45.40;;;18.27;;
65879;SDS011;52661;51.364;6.054;2023-02-23T04:14:37;43.75;;;17.85;;
65879;SDS011;52661;51.364;6.054;2023-02-23T04:17:07;47.72;;;17.83;;
65879;SDS011;52661;51.364;6.054;2023-02-23T04:19:34;49.80;;;17.85;;
65879;SDS011;52661;51.364;6.054;2023-02-23T04:21:59;44.80;;;18.33;;
65879;SDS011;52661;51.364;6.054;2023-02-23T04:24:25;43.60;;;18.47;;
65879;SDS011;52661;51.364;6.054;2023-02-23T04:26:51;40.10;;;17.10;;
65879;SDS011;52661;51.364;6.054;2023-02-23T04:29:16;42.57;;;18.63;;
65879;SDS011;52661;51.364;6.054;2023-02-23T04:31:42;47.90;;;19.07;;
65879;SDS011;52661;51.364;6.054;2023-02-23T04:34:07;40.70;;;17.58;;
65879;SDS011;52661;51.364;6.054;2023-02-23T04:36:33;43.08;;;16.42;;
65879;SDS011;52661;51.364;6.054;2023-02-23T04:38:58;41.13;;;15.88;;
65879;SDS011;52661;51.364;6.054;2023-02-23T04:41:23;40.23;;;15.97;;
65879;SDS011;52661;51.364;6.054;2023-02-23T04:43:49;49.27;;;16.17;;
65879;SDS011;52661;51.364;6.054;2023-02-23T04:46:14;40.92;;;15.38;;
65879;SDS011;52661;51.364;6.054;2023-02-23T04:48:39;50.23;;;17.80;;
65879;SDS011;52661;51.364;6.054;2023-02-23T04:51:05;50.15;;;17.23;;
65879;SDS011;52661;51.364;6.054;2023-02-23T04:53:30;46.88;;;17.25;;
65879;SDS011;52661;51.364;6.054;2023-02-23T04:55:55;50.40;;;16.47;;
65879;SDS011;52661;51.364;6.054;2023-02-23T04:58:21;52.67;;;17.33;;
65879;SDS011;52661;51.364;6.054;2023-02-23T05:00:46;50.47;;;17.57;;
65879;SDS011;52661;51.364;6.054;2023-02-23T05:03:11;56.28;;;19.15;;
65879;SDS011;52661;51.364;6.054;2023-02-23T05:05:37;60.13;;;18.50;;
65879;SDS011;52661;51.364;6.054;2023-02-23T05:08:03;54.65;;;19.05;;
65879;SDS011;52661;51.364;6.054;2023-02-23T05:10:29;49.97;;;17.27;;
65879;SDS011;52661;51.364;6.054;2023-02-23T05:12:54;53.73;;;18.50;;
65879;SDS011;52661;51.364;6.054;2023-02-23T05:15:20;50.20;;;17.73;;
65879;SDS011;52661;51.364;6.054;2023-02-23T05:17:45;58.50;;;18.20;;
65879;SDS011;52661;51.364;6.054;2023-02-23T05:20:12;57.63;;;18.40;;
65879;SDS011;52661;51.364;6.054;2023-02-23T05:22:38;55.78;;;17.60;;
65879;SDS011;52661;51.364;6.054;2023-02-23T05:25:04;53.30;;;16.75;;
65879;SDS011;52661;51.364;6.054;2023-02-23T05:27:30;50.80;;;16.40;;
65879;SDS011;52661;51.364;6.054;2023-02-23T05:29:56;54.10;;;18.92;;
65879;SDS011;52661;51.364;6.054;2023-02-23T05:32:22;49.65;;;17.85;;
65879;SDS011;52661;51.364;6.054;2023-02-23T05:34:48;53.80;;;19.25;;
65879;SDS011;52661;51.364;6.054;2023-02-23T05:37:13;54.03;;;17.48;;
65879;SDS011;52661;51.364;6.054;2023-02-23T05:39:38;51.90;;;17.10;;
65879;SDS011;52661;51.364;6.054;2023-02-23T05:42:04;57.53;;;18.67;;
65879;SDS011;52661;51.364;6.054;2023-02-23T05:44:29;50.85;;;16.70;;
65879;SDS011;52661;51.364;6.054;2023-02-23T05:46:54;56.17;;;18.33;;
65879;SDS011;52661;51.364;6.054;2023-02-23T05:49:20;55.90;;;17.52;;
65879;SDS011;52661;51.364;6.054;2023-02-23T05:51:45;60.75;;;18.33;;
65879;SDS011;52661;51.364;6.054;2023-02-23T05:54:11;56.85;;;18.45;;
65879;SDS011;52661;51.364;6.054;2023-02-23T05:56:37;50.17;;;16.77;;
65879;SDS011;52661;51.364;6.054;2023-02-23T05:59:03;54.50;;;16.90;;
65879;SDS011;52661;51.364;6.054;2023-02-23T06:01:28;59.50;;;19.08;;
65879;SDS011;52661;51.364;6.054;2023-02-23T06:03:54;63.97;;;20.20;;
65879;SDS011;52661;51.364;6.054;2023-02-23T06:06:21;52.58;;;18.77;;
65879;SDS011;52661;51.364;6.054;2023-02-23T06:08:48;59.90;;;19.77;;
65879;SDS011;52661;51.364;6.054;2023-02-23T06:11:13;55.50;;;18.75;;
65879;SDS011;52661;51.364;6.054;2023-02-23T06:13:39;59.35;;;18.63;;
65879;SDS011;52661;51.364;6.054;2023-02-23T06:16:05;57.90;;;18.30;;
65879;SDS011;52661;51.364;6.054;2023-02-23T06:18:32;52.67;;;17.70;;
65879;SDS011;52661;51.364;6.054;2023-02-23T06:20:58;62.58;;;19.40;;
65879;SDS011;52661;51.364;6.054;2023-02-23T06:23:25;54.50;;;16.30;;
65879;SDS011;52661;51.364;6.054;2023-02-23T06:25:51;56.78;;;17.73;;
65879;SDS011;52661;51.364;6.054;2023-02-23T06:28:16;55.60;;;18.43;;
65879;SDS011;52661;51.364;6.054;2023-02-23T06:30:42;60.13;;;18.67;;
65879;SDS011;52661;51.364;6.054;2023-02-23T06:33:08;58.85;;;18.48;;
65879;SDS011;52661;51.364;6.054;2023-02-23T06:35:33;55.27;;;17.97;;
65879;SDS011;52661;51.364;6.054;2023-02-23T06:37:59;63.63;;;18.63;;
65879;SDS011;52661;51.364;6.054;2023-02-23T06:40:25;57.42;;;17.80;;
65879;SDS011;52661;51.364;6.054;2023-02-23T06:42:50;59.15;;;18.85;;
65879;SDS011;52661;51.364;6.054;2023-02-23T06:45:16;57.55;;;19.33;;
65879;SDS011;52661;51.364;6.054;2023-02-23T06:47:43;61.30;;;19.65;;
65879;SDS011;52661;51.364;6.054;2023-02-23T06:50:09;54.42;;;17.73;;
65879;SDS011;52661;51.364;6.054;2023-02-23T06:52:35;54.83;;;18.13;;
65879;SDS011;52661;51.364;6.054;2023-02-23T06:55:00;56.38;;;18.88;;
65879;SDS011;52661;51.364;6.054;2023-02-23T06:57:26;49.08;;;16.45;;
65879;SDS011;52661;51.364;6.054;2023-02-23T06:59:51;58.22;;;17.75;;
65879;SDS011;52661;51.364;6.054;2023-02-23T07:02:17;56.83;;;18.73;;
65879;SDS011;52661;51.364;6.054;2023-02-23T07:04:42;57.47;;;18.88;;
65879;SDS011;52661;51.364;6.054;2023-02-23T07:07:08;52.33;;;17.27;;
65879;SDS011;52661;51.364;6.054;2023-02-23T07:09:34;60.17;;;20.45;;
65879;SDS011;52661;51.364;6.054;2023-02-23T07:11:59;55.92;;;19.33;;
65879;SDS011;52661;51.364;6.054;2023-02-23T07:14:25;61.42;;;19.02;;
65879;SDS011;52661;51.364;6.054;2023-02-23T07:16:51;58.33;;;19.58;;
65879;SDS011;52661;51.364;6.054;2023-02-23T07:19:16;57.60;;;18.83;;
65879;SDS011;52661;51.364;6.054;2023-02-23T07:21:41;54.63;;;18.25;;
65879;SDS011;52661;51.364;6.054;2023-02-23T07:24:07;52.43;;;16.77;;
65879;SDS011;52661;51.364;6.054;2023-02-23T07:26:32;55.03;;;18.13;;
65879;SDS011;52661;51.364;6.054;2023-02-23T07:28:58;58.92;;;19.08;;
65879;SDS011;52661;51.364;6.054;2023-02-23T07:31:24;55.85;;;18.00;;
65879;SDS011;52661;51.364;6.054;2023-02-23T07:33:50;53.65;;;17.13;;
65879;SDS011;52661;51.364;6.054;2023-02-23T07:38:43;54.50;;;17.57;;
65879;SDS011;52661;51.364;6.054;2023-02-23T07:41:08;57.43;;;19.53;;
65879;SDS011;52661;51.364;6.054;2023-02-23T07:43:34;58.85;;;18.55;;
65879;SDS011;52661;51.364;6.054;2023-02-23T07:46:00;55.88;;;19.48;;
65879;SDS011;52661;51.364;6.054;2023-02-23T07:48:26;46.53;;;18.38;;
65879;SDS011;52661;51.364;6.054;2023-02-23T07:50:51;51.78;;;16.90;;
65879;SDS011;52661;51.364;6.054;2023-02-23T07:53:17;58.97;;;18.10;;
65879;SDS011;52661;51.364;6.054;2023-02-23T07:55:42;54.28;;;17.70;;
65879;SDS011;52661;51.364;6.054;2023-02-23T07:58:07;61.97;;;18.27;;
65879;SDS011;52661;51.364;6.054;2023-02-23T08:00:33;58.40;;;17.48;;
65879;SDS011;52661;51.364;6.054;2023-02-23T08:03:00;57.03;;;18.00;;
65879;SDS011;52661;51.364;6.054;2023-02-23T08:05:26;55.88;;;17.40;;
65879;SDS011;52661;51.364;6.054;2023-02-23T08:07:52;57.25;;;18.48;;
65879;SDS011;52661;51.364;6.054;2023-02-23T08:10:19;48.92;;;17.05;;
65879;SDS011;52661;51.364;6.054;2023-02-23T08:12:45;52.85;;;17.42;;
65879;SDS011;52661;51.364;6.054;2023-02-23T08:15:10;49.97;;;17.27;;
65879;SDS011;52661;51.364;6.054;2023-02-23T08:17:36;51.60;;;17.83;;
65879;SDS011;52661;51.364;6.054;2023-02-23T08:20:03;58.55;;;18.48;;
65879;SDS011;52661;51.364;6.054;2023-02-23T08:22:29;57.88;;;18.83;;
65879;SDS011;52661;51.364;6.054;2023-02-23T08:24:55;51.17;;;18.13;;
65879;SDS011;52661;51.364;6.054;2023-02-23T08:27:20;54.97;;;18.30;;
65879;SDS011;52661;51.364;6.054;2023-02-23T08:29:45;53.53;;;18.13;;
65879;SDS011;52661;51.364;6.054;2023-02-23T08:32:11;53.07;;;16.63;;
65879;SDS011;52661;51.364;6.054;2023-02-23T08:34:40;52.70;;;16.20;;
65879;SDS011;52661;51.364;6.054;2023-02-23T08:37:07;49.25;;;15.10;;
65879;SDS011;52661;51.364;6.054;2023-02-23T08:39:33;45.33;;;15.65;;
65879;SDS011;52661;51.364;6.054;2023-02-23T08:41:58;45.00;;;16.48;;
65879;SDS011;52661;51.364;6.054;2023-02-23T08:44:24;52.65;;;17.83;;
65879;SDS011;52661;51.364;6.054;2023-02-23T08:46:49;52.58;;;16.80;;
65879;SDS011;52661;51.364;6.054;2023-02-23T08:49:15;52.47;;;16.38;;
65879;SDS011;52661;51.364;6.054;2023-02-23T08:51:40;49.30;;;15.68;;
65879;SDS011;52661;51.364;6.054;2023-02-23T08:54:07;45.22;;;15.45;;
65879;SDS011;52661;51.364;6.054;2023-02-23T08:56:38;50.20;;;16.27;;
65879;SDS011;52661;51.364;6.054;2023-02-23T08:59:03;51.00;;;16.05;;
65879;SDS011;52661;51.364;6.054;2023-02-23T09:01:28;51.30;;;15.23;;
65879;SDS011;52661;51.364;6.054;2023-02-23T09:03:54;42.50;;;14.35;;
65879;SDS011;52661;51.364;6.054;2023-02-23T09:06:20;45.10;;;13.87;;
65879;SDS011;52661;51.364;6.054;2023-02-23T09:08:47;47.42;;;14.48;;
65879;SDS011;52661;51.364;6.054;2023-02-23T09:11:13;43.47;;;14.10;;
65879;SDS011;52661;51.364;6.054;2023-02-23T09:13:38;45.90;;;16.50;;
65879;SDS011;52661;51.364;6.054;2023-02-23T09:16:04;43.97;;;13.37;;
65879;SDS011;52661;51.364;6.054;2023-02-23T09:18:34;45.85;;;14.23;;
65879;SDS011;52661;51.364;6.054;2023-02-23T09:21:04;43.53;;;13.07;;
65879;SDS011;52661;51.364;6.054;2023-02-23T09:23:38;31.00;;;10.07;;
65879;SDS011;52661;51.364;6.054;2023-02-23T09:26:04;32.00;;;10.77;;
65879;SDS011;52661;51.364;6.054;2023-02-23T09:28:30;38.70;;;12.25;;
65879;SDS011;52661;51.364;6.054;2023-02-23T09:30:58;35.88;;;11.25;;
65879;SDS011;52661;51.364;6.054;2023-02-23T09:33:29;39.03;;;12.75;;
65879;SDS011;52661;51.364;6.054;2023-02-23T09:35:55;35.37;;;10.57;;
65879;SDS011;52661;51.364;6.054;2023-02-23T09:38:20;33.80;;;10.95;;
65879;SDS011;52661;51.364;6.054;2023-02-23T09:40:49;37.17;;;12.80;;
65879;SDS011;52661;51.364;6.054;2023-02-23T09:46:13;41.85;;;13.05;;
65879;SDS011;52661;51.364;6.054;2023-02-23T09:48:56;33.85;;;11.98;;
65879;SDS011;52661;51.364;6.054;2023-02-23T09:51:25;33.25;;;11.85;;
65879;SDS011;52661;51.364;6.054;2023-02-23T09:53:54;34.83;;;12.02;;
65879;SDS011;52661;51.364;6.054;2023-02-23T09:56:42;33.00;;;11.07;;
65879;SDS011;52661;51.364;6.054;2023-02-23T09:59:14;37.70;;;11.90;;
65879;SDS011;52661;51.364;6.054;2023-02-23T10:04:32;27.23;;;9.95;;
65879;SDS011;52661;51.364;6.054;2023-02-23T10:07:14;30.25;;;10.30;;
65879;SDS011;52661;51.364;6.054;2023-02-23T10:12:19;24.47;;;7.97;;
65879;SDS011;52661;51.364;6.054;2023-02-23T10:17:38;28.60;;;10.70;;
65879;SDS011;52661;51.364;6.054;2023-02-23T10:23:09;31.45;;;9.85;;
65879;SDS011;52661;51.364;6.054;2023-02-23T10:25:41;29.60;;;10.15;;
65879;SDS011;52661;51.364;6.054;2023-02-23T10:28:17;27.05;;;9.63;;
65879;SDS011;52661;51.364;6.054;2023-02-23T10:30:45;31.30;;;10.00;;
65879;SDS011;52661;51.364;6.054;2023-02-23T10:35:40;33.97;;;10.50;;
65879;SDS011;52661;51.364;6.054;2023-02-23T10:38:07;29.75;;;9.90;;
65879;SDS011;52661;51.364;6.054;2023-02-23T10:40:38;32.83;;;10.43;;
65879;SDS011;52661;51.364;6.054;2023-02-23T10:43:05;29.38;;;10.25;;
65879;SDS011;52661;51.364;6.054;2023-02-23T10:45:43;34.72;;;11.45;;
65879;SDS011;52661;51.364;6.054;2023-02-23T10:48:17;31.05;;;9.48;;
65879;SDS011;52661;51.364;6.054;2023-02-23T10:50:48;26.30;;;9.18;;
65879;SDS011;52661;51.364;6.054;2023-02-23T10:53:21;30.73;;;9.75;;
65879;SDS011;52661;51.364;6.054;2023-02-23T10:58:38;29.38;;;9.43;;
65879;SDS011;52661;51.364;6.054;2023-02-23T11:01:12;31.30;;;10.88;;
65879;SDS011;52661;51.364;6.054;2023-02-23T11:03:41;28.92;;;9.15;;
65879;SDS011;52661;51.364;6.054;2023-02-23T11:08:57;28.58;;;8.88;;
65879;SDS011;52661;51.364;6.054;2023-02-23T11:11:24;25.53;;;9.03;;
65879;SDS011;52661;51.364;6.054;2023-02-23T11:13:52;26.13;;;8.80;;
65879;SDS011;52661;51.364;6.054;2023-02-23T11:16:19;27.98;;;9.32;;
65879;SDS011;52661;51.364;6.054;2023-02-23T11:21:34;23.05;;;7.95;;
65879;SDS011;52661;51.364;6.054;2023-02-23T11:24:15;24.75;;;7.65;;
65879;SDS011;52661;51.364;6.054;2023-02-23T11:26:49;23.73;;;8.63;;
65879;SDS011;52661;51.364;6.054;2023-02-23T11:31:55;22.83;;;7.60;;
65879;SDS011;52661;51.364;6.054;2023-02-23T11:37:01;21.20;;;7.70;;
65879;SDS011;52661;51.364;6.054;2023-02-23T11:42:24;20.90;;;7.45;;
65879;SDS011;52661;51.364;6.054;2023-02-23T11:47:30;16.90;;;5.75;;
65879;SDS011;52661;51.364;6.054;2023-02-23T11:49:59;18.52;;;5.60;;
65879;SDS011;52661;51.364;6.054;2023-02-23T11:52:26;16.85;;;6.03;;
65879;SDS011;52661;51.364;6.054;2023-02-23T11:54:59;20.13;;;6.90;;
65879;SDS011;52661;51.364;6.054;2023-02-23T11:57:30;19.63;;;6.72;;
65879;SDS011;52661;51.364;6.054;2023-02-23T11:59:58;21.35;;;7.32;;
65879;SDS011;52661;51.364;6.054;2023-02-23T12:02:28;16.48;;;5.32;;
65879;SDS011;52661;51.364;6.054;2023-02-23T12:10:11;16.60;;;5.73;;
65879;SDS011;52661;51.364;6.054;2023-02-23T12:15:17;21.88;;;6.43;;
65879;SDS011;52661;51.364;6.054;2023-02-23T12:24:03;20.35;;;7.45;;
65879;SDS011;52661;51.364;6.054;2023-02-23T12:26:44;17.88;;;5.90;;
65879;SDS011;52661;51.364;6.054;2023-02-23T12:29:22;20.95;;;8.15;;
65879;SDS011;52661;51.364;6.054;2023-02-23T12:31:56;19.58;;;6.20;;
65879;SDS011;52661;51.364;6.054;2023-02-23T12:34:38;21.30;;;8.05;;
65879;SDS011;52661;51.364;6.054;2023-02-23T12:40:04;23.08;;;8.65;;
65879;SDS011;52661;51.364;6.054;2023-02-23T12:48:34;27.05;;;9.50;;
65879;SDS011;52661;51.364;6.054;2023-02-23T12:51:29;23.38;;;8.15;;
65879;SDS011;52661;51.364;6.054;2023-02-23T12:53:58;30.23;;;9.50;;
65879;SDS011;52661;51.364;6.054;2023-02-23T12:56:32;28.42;;;10.15;;
65879;SDS011;52661;51.364;6.054;2023-02-23T13:15:57;33.47;;;10.65;;
65879;SDS011;52661;51.364;6.054;2023-02-23T13:21:10;34.55;;;10.88;;
65879;SDS011;52661;51.364;6.054;2023-02-23T13:24:00;29.25;;;10.82;;
65879;SDS011;52661;51.364;6.054;2023-02-23T13:31:57;29.90;;;10.63;;
65879;SDS011;52661;51.364;6.054;2023-02-23T13:34:34;32.80;;;10.43;;
65879;SDS011;52661;51.364;6.054;2023-02-23T13:37:05;29.60;;;9.77;;
65879;SDS011;52661;51.364;6.054;2023-02-23T13:39:42;32.63;;;10.38;;
65879;SDS011;52661;51.364;6.054;2023-02-23T13:42:19;27.95;;;9.20;;
65879;SDS011;52661;51.364;6.054;2023-02-23T13:45:19;26.73;;;8.82;;
65879;SDS011;52661;51.364;6.054;2023-02-23T13:56:07;26.67;;;8.90;;
65879;SDS011;52661;51.364;6.054;2023-02-23T13:58:35;27.70;;;8.85;;
65879;SDS011;52661;51.364;6.054;2023-02-23T14:01:16;28.05;;;9.40;;
65879;SDS011;52661;51.364;6.054;2023-02-23T14:03:48;28.42;;;8.80;;
65879;SDS011;52661;51.364;6.054;2023-02-23T14:06:17;30.20;;;9.32;;
65879;SDS011;52661;51.364;6.054;2023-02-23T14:14:10;23.33;;;8.10;;
65879;SDS011;52661;51.364;6.054;2023-02-23T14:16:40;23.70;;;7.50;;
65879;SDS011;52661;51.364;6.054;2023-02-23T14:19:13;24.23;;;7.80;;
65879;SDS011;52661;51.364;6.054;2023-02-23T14:21:57;27.15;;;8.00;;
65879;SDS011;52661;51.364;6.054;2023-02-23T14:24:26;19.80;;;6.85;;
65879;SDS011;52661;51.364;6.054;2023-02-23T14:29:43;22.00;;;7.25;;
65879;SDS011;52661;51.364;6.054;2023-02-23T14:32:27;20.83;;;6.47;;
65879;SDS011;52661;51.364;6.054;2023-02-23T14:34:58;20.73;;;6.57;;
65879;SDS011;52661;51.364;6.054;2023-02-23T14:42:45;24.90;;;7.80;;
65879;SDS011;52661;51.364;6.054;2023-02-23T14:45:26;22.67;;;8.05;;
65879;SDS011;52661;51.364;6.054;2023-02-23T14:48:09;20.13;;;7.18;;
65879;SDS011;52661;51.364;6.054;2023-02-23T14:50:37;21.25;;;7.68;;
65879;SDS011;52661;51.364;6.054;2023-02-23T14:53:05;23.60;;;7.18;;
65879;SDS011;52661;51.364;6.054;2023-02-23T14:55:39;19.90;;;7.25;;
65879;SDS011;52661;51.364;6.054;2023-02-23T14:58:24;24.17;;;7.60;;
65879;SDS011;52661;51.364;6.054;2023-02-23T15:00:52;20.55;;;6.93;;
65879;SDS011;52661;51.364;6.054;2023-02-23T15:03:17;17.98;;;6.75;;
65879;SDS011;52661;51.364;6.054;2023-02-23T15:05:43;19.42;;;6.68;;
65879;SDS011;52661;51.364;6.054;2023-02-23T15:08:16;19.67;;;6.55;;
65879;SDS011;52661;51.364;6.054;2023-02-23T15:10:45;21.42;;;7.13;;
65879;SDS011;52661;51.364;6.054;2023-02-23T15:16:10;18.27;;;6.35;;
65879;SDS011;52661;51.364;6.054;2023-02-23T15:18:39;18.23;;;6.53;;
65879;SDS011;52661;51.364;6.054;2023-02-23T15:21:10;19.10;;;6.38;;
65879;SDS011;52661;51.364;6.054;2023-02-23T15:23:38;13.90;;;4.38;;
65879;SDS011;52661;51.364;6.054;2023-02-23T15:28:42;17.58;;;6.68;;
65879;SDS011;52661;51.364;6.054;2023-02-23T15:31:09;17.00;;;6.13;;
65879;SDS011;52661;51.364;6.054;2023-02-23T15:33:37;15.80;;;5.40;;
65879;SDS011;52661;51.364;6.054;2023-02-23T15:36:05;13.05;;;5.40;;
65879;SDS011;52661;51.364;6.054;2023-02-23T15:38:34;15.45;;;6.13;;
65879;SDS011;52661;51.364;6.054;2023-02-23T15:41:06;14.82;;;6.05;;
65879;SDS011;52661;51.364;6.054;2023-02-23T15:43:39;16.88;;;6.20;;
65879;SDS011;52661;51.364;6.054;2023-02-23T15:46:06;13.10;;;5.25;;
65879;SDS011;52661;51.364;6.054;2023-02-23T15:48:44;17.95;;;6.72;;
65879;SDS011;52661;51.364;6.054;2023-02-23T15:51:20;16.38;;;5.85;;
65879;SDS011;52661;51.364;6.054;2023-02-23T15:53:51;16.45;;;5.93;;
65879;SDS011;52661;51.364;6.054;2023-02-23T15:56:25;15.10;;;5.95;;
65879;SDS011;52661;51.364;6.054;2023-02-23T15:58:57;16.38;;;5.75;;
65879;SDS011;52661;51.364;6.054;2023-02-23T16:01:27;15.50;;;5.28;;
65879;SDS011;52661;51.364;6.054;2023-02-23T16:04:01;13.55;;;4.93;;
65879;SDS011;52661;51.364;6.054;2023-02-23T16:06:35;13.07;;;4.40;;
65879;SDS011;52661;51.364;6.054;2023-02-23T16:11:55;13.38;;;4.80;;
65879;SDS011;52661;51.364;6.054;2023-02-23T16:14:21;13.63;;;5.28;;
65879;SDS011;52661;51.364;6.054;2023-02-23T16:16:48;12.48;;;4.75;;
65879;SDS011;52661;51.364;6.054;2023-02-23T16:19:16;15.18;;;5.28;;
65879;SDS011;52661;51.364;6.054;2023-02-23T16:21:51;15.18;;;5.55;;
65879;SDS011;52661;51.364;6.054;2023-02-23T16:24:19;13.38;;;4.60;;
65879;SDS011;52661;51.364;6.054;2023-02-23T16:26:49;15.25;;;5.32;;
65879;SDS011;52661;51.364;6.054;2023-02-23T16:29:26;11.55;;;5.05;;
65879;SDS011;52661;51.364;6.054;2023-02-23T16:32:00;16.33;;;5.40;;
65879;SDS011;52661;51.364;6.054;2023-02-23T16:34:34;18.65;;;7.47;;
65879;SDS011;52661;51.364;6.054;2023-02-23T16:37:18;30.30;;;11.07;;
65879;SDS011;52661;51.364;6.054;2023-02-23T16:39:47;27.45;;;10.27;;
65879;SDS011;52661;51.364;6.054;2023-02-23T16:42:34;17.33;;;6.60;;
65879;SDS011;52661;51.364;6.054;2023-02-23T16:44:59;15.93;;;5.90;;
65879;SDS011;52661;51.364;6.054;2023-02-23T16:49:57;13.80;;;4.93;;
65879;SDS011;52661;51.364;6.054;2023-02-23T16:52:22;13.32;;;3.20;;
65879;SDS011;52661;51.364;6.054;2023-02-23T16:54:49;12.18;;;3.38;;
65879;SDS011;52661;51.364;6.054;2023-02-23T16:57:29;12.00;;;3.53;;
65879;SDS011;52661;51.364;6.054;2023-02-23T16:59:59;14.50;;;3.50;;
65879;SDS011;52661;51.364;6.054;2023-02-23T17:02:24;11.25;;;3.72;;
65879;SDS011;52661;51.364;6.054;2023-02-23T17:04:50;12.13;;;3.25;;
65879;SDS011;52661;51.364;6.054;2023-02-23T17:07:17;10.55;;;3.38;;
65879;SDS011;52661;51.364;6.054;2023-02-23T17:09:44;11.30;;;4.18;;
65879;SDS011;52661;51.364;6.054;2023-02-23T17:12:10;12.15;;;3.65;;
65879;SDS011;52661;51.364;6.054;2023-02-23T17:14:38;11.38;;;3.25;;
65879;SDS011;52661;51.364;6.054;2023-02-23T17:17:03;12.82;;;4.05;;